Ottine, Texas
Current Conditions -  °F | °C
As of 12:45 PM on Sunday 21 Dec 2014 (Local Time) from KHYI Reporting Station
Overcast Overcast  
Wind Chill: 55°   Ceiling: 1500
Heat Index: 55°   Visibility: 10mi
Dew Point: 46°   Wind: 9mph
Humidity: 72%   Direction: 210°SSW
Pressure: 30.03"   Gusts: NA
Location:  29.6°N, 97.58°W
Report Text: KHYI 211845Z 21008KT 10SM OVC015 13/08 A3003
Loading
Personal Weather Stations






























Interactive Weather Map New forecast layout! Learn more

10-Day Weather Forecast

Advertisements
Track Severe Weather on mobile